createdAt,value
2023-04-16T00:00:28.343Z,100.00
2023-04-16T00:02:55.626Z,100.00
2023-04-16T00:05:22.860Z,100.00
2023-04-16T00:07:51.983Z,100.00
2023-04-16T00:10:19.016Z,100.00
2023-04-16T00:12:45.884Z,100.00
2023-04-16T00:15:12.722Z,100.00
2023-04-16T00:17:39.564Z,100.00
2023-04-16T00:20:08.991Z,100.00
2023-04-16T00:22:35.901Z,100.00
2023-04-16T00:25:04.816Z,100.00
2023-04-16T00:27:31.668Z,100.00
2023-04-16T00:29:58.604Z,100.00
2023-04-16T00:32:25.523Z,100.00
2023-04-16T00:34:52.424Z,100.00
2023-04-16T00:37:19.235Z,100.00
2023-04-16T00:39:46.089Z,100.00
2023-04-16T00:42:14.294Z,100.00
2023-04-16T00:44:41.117Z,100.00
2023-04-16T00:47:08.675Z,100.00
2023-04-16T00:49:36.409Z,100.00
2023-04-16T00:52:03.440Z,100.00
2023-04-16T00:54:31.771Z,100.00
2023-04-16T00:56:59.174Z,100.00
2023-04-16T00:59:27.925Z,100.00
2023-04-16T01:01:54.991Z,100.00
2023-04-16T01:04:21.990Z,100.00
2023-04-16T01:06:48.917Z,100.00
2023-04-16T01:09:15.870Z,100.00
2023-04-16T01:11:42.723Z,100.00
2023-04-16T01:14:09.581Z,100.00
2023-04-16T01:16:37.829Z,100.00
2023-04-16T01:19:04.653Z,100.00
2023-04-16T01:21:33.115Z,100.00
2023-04-16T01:24:02.855Z,100.00
2023-04-16T01:26:29.714Z,100.00
2023-04-16T01:28:56.636Z,100.00
2023-04-16T01:31:23.496Z,100.00
2023-04-16T01:33:50.361Z,100.00
2023-04-16T01:36:17.199Z,100.00
2023-04-16T01:38:45.451Z,100.00
2023-04-16T01:41:12.281Z,100.00
2023-04-16T01:43:40.317Z,100.00
2023-04-16T01:46:15.656Z,100.00
2023-04-16T01:48:43.024Z,100.00
2023-04-16T01:51:10.258Z,100.00
2023-04-16T01:53:37.291Z,100.00
2023-04-16T01:56:06.592Z,100.00
2023-04-16T01:58:34.074Z,100.00
2023-04-16T02:01:01.065Z,100.00
2023-04-16T02:03:28.240Z,100.00
2023-04-16T02:05:55.223Z,100.00
2023-04-16T02:08:22.077Z,100.00
2023-04-16T02:10:50.463Z,100.00
2023-04-16T02:13:18.742Z,100.00
2023-04-16T02:15:46.736Z,100.00
2023-04-16T02:18:13.815Z,100.00
2023-04-16T02:20:41.477Z,100.00
2023-04-16T02:23:08.459Z,100.00
2023-04-16T02:25:39.050Z,100.00
2023-04-16T02:28:05.877Z,100.00
2023-04-16T02:30:34.939Z,100.00
2023-04-16T02:33:03.760Z,100.00
2023-04-16T02:35:30.659Z,100.00
2023-04-16T02:37:57.720Z,100.00
2023-04-16T02:40:24.960Z,100.00
2023-04-16T02:42:51.854Z,100.00
2023-04-16T02:45:19.145Z,100.00
2023-04-16T02:47:47.910Z,100.00
2023-04-16T02:50:14.898Z,100.00
2023-04-16T02:52:41.818Z,100.00
2023-04-16T02:55:10.054Z,100.00
2023-04-16T02:57:36.898Z,100.00
2023-04-16T03:00:07.382Z,100.00
2023-04-16T03:02:34.317Z,100.00
2023-04-16T03:05:02.714Z,100.00
2023-04-16T03:07:29.528Z,100.00
2023-04-16T03:09:56.461Z,100.00
2023-04-16T03:12:23.329Z,100.00
2023-04-16T03:14:53.444Z,100.00
2023-04-16T03:17:20.349Z,100.00
2023-04-16T03:19:47.181Z,100.00
2023-04-16T03:22:15.556Z,100.00
2023-04-16T03:24:42.382Z,100.00
2023-04-16T03:27:09.228Z,100.00
2023-04-16T03:29:37.004Z,100.00
2023-04-16T03:32:04.022Z,100.00
2023-04-16T03:34:31.001Z,100.00
2023-04-16T03:36:58.050Z,100.00
2023-04-16T03:39:26.369Z,100.00
2023-04-16T03:41:53.179Z,100.00
2023-04-16T03:44:20.050Z,100.00
2023-04-16T03:46:46.916Z,100.00
2023-04-16T03:49:13.924Z,100.00
2023-04-16T03:51:40.870Z,100.00
2023-04-16T03:54:07.695Z,100.00
2023-04-16T03:56:35.956Z,100.00
2023-04-16T03:59:02.868Z,100.00
2023-04-16T04:01:29.693Z,100.00
2023-04-16T04:03:56.810Z,100.00
2023-04-16T04:06:23.852Z,100.00
2023-04-16T04:08:50.725Z,100.00
2023-04-16T04:11:17.560Z,100.00
2023-04-16T04:13:46.017Z,100.00
2023-04-16T04:16:12.839Z,100.00
2023-04-16T04:18:39.749Z,100.00
2023-04-16T04:21:07.163Z,100.00
2023-04-16T04:23:34.049Z,100.00
2023-04-16T04:26:03.864Z,100.00
2023-04-16T04:28:31.056Z,100.00
2023-04-16T04:30:59.710Z,100.00
2023-04-16T04:33:26.749Z,100.00
2023-04-16T04:35:53.915Z,100.00
2023-04-16T04:38:22.342Z,100.00
2023-04-16T04:40:49.228Z,100.00
2023-04-16T04:43:16.192Z,100.00
2023-04-16T04:45:43.225Z,100.00
2023-04-16T04:48:11.442Z,100.00
2023-04-16T04:50:38.447Z,100.00
2023-04-16T04:53:09.938Z,100.00
2023-04-16T04:55:37.446Z,100.00
2023-04-16T04:58:04.824Z,100.00
2023-04-16T05:00:31.957Z,100.00
2023-04-16T05:03:01.978Z,100.00
2023-04-16T05:05:30.543Z,100.00
2023-04-16T05:07:57.413Z,100.00
2023-04-16T05:10:24.302Z,100.00
2023-04-16T05:12:51.208Z,100.00
2023-04-16T05:15:18.130Z,100.00
2023-04-16T05:17:45.109Z,100.00
2023-04-16T05:20:12.068Z,100.00
2023-04-16T05:22:40.353Z,100.00
2023-04-16T05:25:07.676Z,100.00
2023-04-16T05:27:34.516Z,100.00
2023-04-16T05:30:01.450Z,100.00
2023-04-16T05:32:28.279Z,100.00
2023-04-16T05:34:55.255Z,100.00
2023-04-16T05:37:22.089Z,100.00
2023-04-16T05:39:50.480Z,100.00
2023-04-16T05:42:17.349Z,100.00
2023-04-16T05:44:44.205Z,100.00
2023-04-16T05:47:11.095Z,100.00
2023-04-16T05:49:38.012Z,100.00
2023-04-16T05:52:05.756Z,100.00
2023-04-16T05:54:32.598Z,100.00
2023-04-16T05:57:01.855Z,100.00
2023-04-16T05:59:29.432Z,100.00
2023-04-16T06:01:56.681Z,100.00
2023-04-16T06:04:23.641Z,100.00
2023-04-16T06:06:50.771Z,100.00
2023-04-16T06:09:18.380Z,100.00
2023-04-16T06:11:45.618Z,100.00
2023-04-16T06:14:13.909Z,100.00
2023-04-16T06:16:40.842Z,100.00
2023-04-16T06:19:07.843Z,100.00
2023-04-16T06:21:34.941Z,100.00
2023-04-16T06:24:01.817Z,100.00
2023-04-16T06:26:28.651Z,100.00
2023-04-16T06:28:55.654Z,100.00
2023-04-16T06:31:24.511Z,100.00
2023-04-16T06:33:51.385Z,100.00
2023-04-16T06:36:18.343Z,100.00
2023-04-16T06:38:45.349Z,100.00
2023-04-16T06:41:14.332Z,100.00
2023-04-16T06:43:41.434Z,100.00
2023-04-16T06:46:08.295Z,100.00
2023-04-16T06:48:36.543Z,99.02
2023-04-16T06:51:04.624Z,94.94
2023-04-16T06:53:31.811Z,87.59
2023-04-16T06:55:58.649Z,83.06
2023-04-16T06:58:25.656Z,83.43
2023-04-16T07:00:52.647Z,83.14
2023-04-16T07:03:19.654Z,88.04
2023-04-16T07:05:47.971Z,93.51
2023-04-16T07:08:14.819Z,91.55
2023-04-16T07:10:41.717Z,91.83
2023-04-16T07:13:08.676Z,93.82
2023-04-16T07:15:35.573Z,92.32
2023-04-16T07:18:02.508Z,93.07
2023-04-16T07:20:29.406Z,88.28
2023-04-16T07:22:59.420Z,86.39
2023-04-16T07:25:26.963Z,90.35
2023-04-16T07:27:53.891Z,92.81
2023-04-16T07:30:20.758Z,90.08
2023-04-16T07:32:47.688Z,90.23
2023-04-16T07:35:15.863Z,91.52
2023-04-16T07:37:42.798Z,91.88
2023-04-16T07:40:12.290Z,88.97
2023-04-16T07:42:39.127Z,89.96
2023-04-16T07:45:07.580Z,88.51
2023-04-16T07:47:34.426Z,89.16
2023-04-16T07:50:01.351Z,87.81
2023-04-16T07:52:28.145Z,82.34
2023-04-16T07:54:54.999Z,75.69
2023-04-16T07:57:23.188Z,75.66
2023-04-16T07:59:50.036Z,69.76
2023-04-16T08:02:17.262Z,66.81
2023-04-16T08:04:44.762Z,69.44
2023-04-16T08:07:11.993Z,71.80
2023-04-16T08:09:47.695Z,70.10
2023-04-16T08:12:14.589Z,65.40
2023-04-16T08:14:42.865Z,65.30
2023-04-16T08:17:10.116Z,66.60
2023-04-16T08:19:36.910Z,67.14
2023-04-16T08:22:04.083Z,66.06
2023-04-16T08:24:31.042Z,68.99
2023-04-16T08:27:08.028Z,68.07
2023-04-16T08:29:43.569Z,70.16
2023-04-16T08:32:10.676Z,69.02
2023-04-16T08:34:37.697Z,70.98
2023-04-16T08:37:04.556Z,70.11
2023-04-16T08:39:31.689Z,73.48
2023-04-16T08:41:59.041Z,73.50
2023-04-16T08:44:28.487Z,77.43
2023-04-16T08:46:59.007Z,71.20
2023-04-16T08:49:26.948Z,71.36
2023-04-16T08:51:55.152Z,71.73
2023-04-16T08:54:32.584Z,72.65
2023-04-16T08:57:00.298Z,74.00
2023-04-16T08:59:28.582Z,69.26
2023-04-16T09:01:58.882Z,78.03
2023-04-16T09:04:28.356Z,79.04
2023-04-16T09:06:59.464Z,76.90
2023-04-16T09:09:27.146Z,82.36
2023-04-16T09:11:54.383Z,81.71
2023-04-16T09:14:22.158Z,81.62
2023-04-16T09:16:49.678Z,75.18
2023-04-16T09:19:18.009Z,73.76
2023-04-16T09:21:47.751Z,81.87
2023-04-16T09:24:14.701Z,82.12
2023-04-16T09:26:43.529Z,79.36
2023-04-16T09:29:10.812Z,79.16
2023-04-16T09:31:37.986Z,81.79
2023-04-16T09:34:06.596Z,85.30
2023-04-16T09:36:35.997Z,84.39
2023-04-16T09:39:04.212Z,82.35
2023-04-16T09:41:33.335Z,82.30
2023-04-16T09:44:01.925Z,79.46
2023-04-16T09:46:31.892Z,82.33
2023-04-16T09:48:58.895Z,82.92
2023-04-16T09:51:26.986Z,80.78
2023-04-16T09:53:57.109Z,79.57
2023-04-16T09:56:26.101Z,81.59
2023-04-16T09:58:58.201Z,80.71
2023-04-16T10:01:25.577Z,77.29
2023-04-16T10:03:57.798Z,79.78
2023-04-16T10:06:27.932Z,80.27
2023-04-16T10:08:59.254Z,76.89
2023-04-16T10:11:26.448Z,78.36
2023-04-16T10:13:53.632Z,75.81
2023-04-16T10:16:22.765Z,76.98
2023-04-16T10:18:49.663Z,76.69
2023-04-16T10:21:16.824Z,80.42
2023-04-16T10:23:44.060Z,79.70
2023-04-16T10:26:12.579Z,76.61
2023-04-16T10:28:39.440Z,77.62
2023-04-16T10:31:09.196Z,79.63
2023-04-16T10:33:40.060Z,77.13
2023-04-16T10:36:11.997Z,72.76
2023-04-16T10:38:40.606Z,73.55
2023-04-16T10:41:09.287Z,72.02
2023-04-16T10:43:42.981Z,75.71
2023-04-16T10:46:23.583Z,74.08
2023-04-16T10:48:53.375Z,74.56
2023-04-16T10:51:29.489Z,73.54
2023-04-16T10:53:57.568Z,76.37
2023-04-16T10:56:25.496Z,79.51
2023-04-16T10:58:57.713Z,77.01
2023-04-16T11:01:32.542Z,78.30
2023-04-16T11:04:02.097Z,75.64
2023-04-16T11:06:29.748Z,77.53
2023-04-16T11:08:56.636Z,78.04
2023-04-16T11:11:23.756Z,79.25
2023-04-16T11:13:57.105Z,79.13
2023-04-16T11:16:25.515Z,75.55
2023-04-16T11:18:53.502Z,74.28
2023-04-16T11:21:22.508Z,87.70
2023-04-16T11:23:50.688Z,79.55
2023-04-16T11:26:25.138Z,80.03
2023-04-16T11:28:52.135Z,80.04
2023-04-16T11:31:20.812Z,78.46
2023-04-16T11:33:47.793Z,80.49
2023-04-16T11:36:14.774Z,80.88
2023-04-16T11:38:43.007Z,79.33
2023-04-16T11:41:11.148Z,80.91
2023-04-16T11:43:38.327Z,81.28
2023-04-16T11:46:20.156Z,83.21
2023-04-16T11:48:56.195Z,80.82
2023-04-16T11:51:23.633Z,80.78
2023-04-16T11:53:53.110Z,80.72
2023-04-16T11:56:28.338Z,78.73
2023-04-16T11:59:13.928Z,80.68
2023-04-16T12:01:45.521Z,79.90
2023-04-16T12:04:14.625Z,76.14
2023-04-16T12:06:41.796Z,76.98
2023-04-16T12:09:24.968Z,73.32
2023-04-16T12:11:51.929Z,77.13
2023-04-16T12:14:19.018Z,78.51
2023-04-16T12:16:45.986Z,76.21
2023-04-16T12:19:14.760Z,77.95
2023-04-16T12:21:43.382Z,78.45
2023-04-16T12:24:15.823Z,78.42
2023-04-16T12:26:44.772Z,76.55
2023-04-16T12:29:16.779Z,75.76
2023-04-16T12:31:44.242Z,75.14
2023-04-16T12:34:11.294Z,73.01
2023-04-16T12:36:39.588Z,76.88
2023-04-16T12:39:07.479Z,75.31
2023-04-16T12:41:36.902Z,75.47
2023-04-16T12:44:06.800Z,78.35
2023-04-16T12:46:33.761Z,74.17
2023-04-16T12:49:00.744Z,73.43
2023-04-16T12:51:28.088Z,76.89
2023-04-16T12:53:56.454Z,72.38
2023-04-16T12:56:23.725Z,72.94
2023-04-16T12:58:52.001Z,74.86
2023-04-16T13:01:19.255Z,72.71
2023-04-16T13:03:46.423Z,73.59
2023-04-16T13:06:14.088Z,73.70
2023-04-16T13:08:41.360Z,74.47
2023-04-16T13:11:09.845Z,77.65
2023-04-16T13:13:36.866Z,74.65
2023-04-16T13:16:06.665Z,74.02
2023-04-16T13:18:33.775Z,73.62
2023-04-16T13:21:00.846Z,75.88
2023-04-16T13:23:27.696Z,78.07
2023-04-16T13:25:54.739Z,70.95
2023-04-16T13:28:23.047Z,72.94
2023-04-16T13:30:50.026Z,72.40
2023-04-16T13:33:17.051Z,66.22
2023-04-16T13:35:43.970Z,70.62
2023-04-16T13:38:10.981Z,71.94
2023-04-16T13:40:37.939Z,71.32
2023-04-16T13:43:05.967Z,73.81
2023-04-16T13:45:38.006Z,74.78
2023-04-16T13:48:05.591Z,76.31
2023-04-16T13:50:32.867Z,76.06
2023-04-16T13:52:59.718Z,72.74
2023-04-16T13:55:26.806Z,71.85
2023-04-16T13:57:53.739Z,67.07
2023-04-16T14:00:20.919Z,70.23
2023-04-16T14:02:49.379Z,73.79
2023-04-16T14:05:16.527Z,73.53
2023-04-16T14:07:43.761Z,72.85
2023-04-16T14:10:11.329Z,73.81
2023-04-16T14:12:39.174Z,74.22
2023-04-16T14:15:07.393Z,73.89
2023-04-16T14:17:34.293Z,68.00
2023-04-16T14:20:02.843Z,75.70
2023-04-16T14:22:29.692Z,71.34
2023-04-16T14:24:56.773Z,74.27
2023-04-16T14:27:23.756Z,72.87
2023-04-16T14:29:50.954Z,71.74
2023-04-16T14:32:17.947Z,71.98
2023-04-16T14:34:44.882Z,74.09
2023-04-16T14:37:13.454Z,72.04
2023-04-16T14:39:40.598Z,71.18
2023-04-16T14:42:07.449Z,71.08
2023-04-16T14:44:34.323Z,68.41
2023-04-16T14:47:01.254Z,70.66
2023-04-16T14:49:28.183Z,72.29
2023-04-16T14:51:56.643Z,77.62
2023-04-16T14:54:25.197Z,73.93
2023-04-16T14:56:52.039Z,73.77
2023-04-16T14:59:18.974Z,73.27
2023-04-16T15:01:47.395Z,80.80
2023-04-16T15:04:14.720Z,78.21
2023-04-16T15:06:41.997Z,78.02
2023-04-16T15:09:09.709Z,73.86
2023-04-16T15:11:38.309Z,76.76
2023-04-16T15:14:05.615Z,76.91
2023-04-16T15:16:32.674Z,78.17
2023-04-16T15:18:59.639Z,79.18
2023-04-16T15:21:27.980Z,78.56
2023-04-16T15:23:54.852Z,76.93
2023-04-16T15:26:23.266Z,78.96
2023-04-16T15:28:51.486Z,80.74
2023-04-16T15:31:20.848Z,82.20
2023-04-16T15:33:48.248Z,82.10
2023-04-16T15:36:15.584Z,81.35
2023-04-16T15:38:42.405Z,82.21
2023-04-16T15:41:09.951Z,78.29
2023-04-16T15:43:37.093Z,81.13
2023-04-16T15:46:05.609Z,81.04
2023-04-16T15:48:32.463Z,82.96
2023-04-16T15:50:59.267Z,85.90
2023-04-16T15:53:29.448Z,82.47
2023-04-16T15:55:56.356Z,85.36
2023-04-16T15:58:23.161Z,84.14
2023-04-16T16:00:53.310Z,85.77
2023-04-16T16:03:22.087Z,84.12
2023-04-16T16:05:49.419Z,85.54
2023-04-16T16:08:16.622Z,88.14
2023-04-16T16:10:43.997Z,90.60
2023-04-16T16:13:13.219Z,88.75
2023-04-16T16:15:41.018Z,88.51
2023-04-16T16:18:07.954Z,91.25
2023-04-16T16:20:36.704Z,91.06
2023-04-16T16:23:04.082Z,87.13
2023-04-16T16:25:30.994Z,87.76
2023-04-16T16:27:58.907Z,90.12
2023-04-16T16:30:26.570Z,90.12
2023-04-16T16:32:53.556Z,90.93
2023-04-16T16:35:20.666Z,92.01
2023-04-16T16:37:48.932Z,90.04
2023-04-16T16:40:16.183Z,90.29
2023-04-16T16:42:43.059Z,89.85
2023-04-16T16:45:11.052Z,91.84
2023-04-16T16:47:38.050Z,91.25
2023-04-16T16:50:05.991Z,90.29
2023-04-16T16:52:32.870Z,90.37
2023-04-16T16:55:01.369Z,90.53
2023-04-16T16:57:28.274Z,88.55
2023-04-16T16:59:55.157Z,87.29
2023-04-16T17:02:22.252Z,90.21
2023-04-16T17:04:49.231Z,89.90
2023-04-16T17:07:16.075Z,90.23
2023-04-16T17:09:42.947Z,88.28
2023-04-16T17:12:11.249Z,90.75
2023-04-16T17:14:38.472Z,90.49
2023-04-16T17:17:05.510Z,89.62
2023-04-16T17:19:32.307Z,89.12
2023-04-16T17:21:59.142Z,86.51
2023-04-16T17:24:26.105Z,86.53
2023-04-16T17:26:53.771Z,85.55
2023-04-16T17:29:25.935Z,87.81
2023-04-16T17:31:53.814Z,92.43
2023-04-16T17:34:21.078Z,90.07
2023-04-16T17:36:48.032Z,90.25
2023-04-16T17:39:14.900Z,91.02
2023-04-16T17:41:41.791Z,90.13
2023-04-16T17:44:11.133Z,96.53
2023-04-16T17:46:40.039Z,90.30
2023-04-16T17:49:06.935Z,92.22
2023-04-16T17:51:33.823Z,93.51
2023-04-16T17:54:00.680Z,91.68
2023-04-16T17:56:27.466Z,91.62
2023-04-16T17:58:54.267Z,91.62
2023-04-16T18:01:21.190Z,92.72
2023-04-16T18:03:49.799Z,93.22
2023-04-16T18:06:16.968Z,94.17
2023-04-16T18:08:43.752Z,94.88
2023-04-16T18:11:10.762Z,95.61
2023-04-16T18:13:37.633Z,99.41
2023-04-16T18:16:04.594Z,98.66
2023-04-16T18:18:31.449Z,99.11
2023-04-16T18:20:59.823Z,97.46
2023-04-16T18:23:27.311Z,98.49
2023-04-16T18:25:54.559Z,100.00
2023-04-16T18:28:21.592Z,99.80
2023-04-16T18:35:46.348Z,100.00
2023-04-16T18:38:14.690Z,100.00
2023-04-16T18:40:42.262Z,100.00
2023-04-16T18:43:09.453Z,100.00
2023-04-16T18:45:37.079Z,100.00
2023-04-16T18:48:04.264Z,100.00
2023-04-16T18:50:31.207Z,100.00
2023-04-16T18:52:58.154Z,100.00
2023-04-16T18:55:26.502Z,100.00
2023-04-16T18:57:53.375Z,100.00
2023-04-16T19:00:20.527Z,100.00
2023-04-16T19:02:47.469Z,100.00
2023-04-16T19:05:14.380Z,100.00
2023-04-16T19:07:41.856Z,100.00
2023-04-16T19:10:09.500Z,100.00
2023-04-16T19:12:37.772Z,100.00
2023-04-16T19:15:05.097Z,100.00
2023-04-16T19:17:31.996Z,100.00
2023-04-16T19:19:59.174Z,100.00
2023-04-16T19:22:26.234Z,100.00
2023-04-16T19:24:54.657Z,100.00
2023-04-16T19:27:21.470Z,100.00
2023-04-16T19:29:49.640Z,100.00
2023-04-16T19:32:16.544Z,100.00
2023-04-16T19:34:43.432Z,100.00
2023-04-16T19:37:10.401Z,100.00
2023-04-16T19:39:37.291Z,100.00
2023-04-16T19:42:04.208Z,100.00
2023-04-16T19:44:32.388Z,100.00
2023-04-16T19:47:00.646Z,100.00
2023-04-16T19:49:27.516Z,100.00
2023-04-16T19:51:55.326Z,100.00
2023-04-16T19:54:22.179Z,100.00
2023-04-16T19:56:49.419Z,100.00
2023-04-16T19:59:16.399Z,100.00
2023-04-16T20:01:43.407Z,100.00
2023-04-16T20:04:12.193Z,100.00
2023-04-16T20:06:39.074Z,100.00
2023-04-16T20:09:06.169Z,100.00
2023-04-16T20:11:34.620Z,100.00
2023-04-16T20:14:01.794Z,100.00
2023-04-16T20:16:28.657Z,100.00
2023-04-16T20:18:55.576Z,100.00
2023-04-16T20:21:25.062Z,100.00
2023-04-16T20:23:51.933Z,100.00
2023-04-16T20:26:18.940Z,100.00
2023-04-16T20:28:45.793Z,100.00
2023-04-16T20:31:12.976Z,100.00
2023-04-16T20:33:39.903Z,100.00
2023-04-16T20:36:07.572Z,100.00
2023-04-16T20:38:37.445Z,100.00
2023-04-16T20:41:10.117Z,100.00
2023-04-16T20:43:41.365Z,100.00
2023-04-16T20:46:08.969Z,100.00
2023-04-16T20:48:36.019Z,100.00
2023-04-16T20:51:04.653Z,100.00
2023-04-16T20:53:32.778Z,100.00
2023-04-16T20:56:01.083Z,100.00
2023-04-16T20:58:28.059Z,100.00
2023-04-16T21:00:57.402Z,100.00
2023-04-16T21:03:24.743Z,100.00
2023-04-16T21:05:55.891Z,100.00
2023-04-16T21:08:23.495Z,100.00
2023-04-16T21:10:50.707Z,100.00
2023-04-16T21:13:20.763Z,100.00
2023-04-16T21:15:47.687Z,100.00
2023-04-16T21:18:14.731Z,100.00
2023-04-16T21:20:41.554Z,100.00
2023-04-16T21:23:08.447Z,100.00
2023-04-16T21:25:35.426Z,100.00
2023-04-16T21:28:02.336Z,100.00
2023-04-16T21:30:30.595Z,100.00
2023-04-16T21:32:57.516Z,100.00
2023-04-16T21:35:24.461Z,100.00
2023-04-16T21:37:51.386Z,100.00
2023-04-16T21:40:18.248Z,100.00
2023-04-16T21:42:45.376Z,100.00
2023-04-16T21:45:12.373Z,100.00
2023-04-16T21:47:40.897Z,100.00
2023-04-16T21:50:08.772Z,100.00
2023-04-16T21:52:40.459Z,100.00
2023-04-16T21:55:09.544Z,100.00
2023-04-16T21:57:36.369Z,100.00
2023-04-16T22:00:08.393Z,100.00
2023-04-16T22:02:35.375Z,100.00
2023-04-16T22:05:03.999Z,100.00
2023-04-16T22:07:30.871Z,100.00
2023-04-16T22:09:57.684Z,100.00
2023-04-16T22:12:24.505Z,100.00
2023-04-16T22:17:23.688Z,100.00
2023-04-16T22:19:50.918Z,100.00
2023-04-16T22:22:20.637Z,100.00
2023-04-16T22:24:48.823Z,100.00
2023-04-16T22:27:15.882Z,100.00
2023-04-16T22:29:42.939Z,100.00
2023-04-16T22:32:09.858Z,100.00
2023-04-16T22:34:36.865Z,100.00
2023-04-16T22:37:03.696Z,100.00
2023-04-16T22:39:32.116Z,100.00
2023-04-16T22:41:59.054Z,100.00
2023-04-16T22:44:25.886Z,100.00
2023-04-16T22:46:52.749Z,100.00
2023-04-16T22:49:20.346Z,100.00
2023-04-16T22:51:47.182Z,100.00
2023-04-16T22:54:14.125Z,100.00
2023-04-16T22:56:42.484Z,100.00
2023-04-16T22:59:09.480Z,100.00
2023-04-16T23:01:36.711Z,100.00
2023-04-16T23:04:03.683Z,100.00
2023-04-16T23:06:31.511Z,100.00
2023-04-16T23:08:58.416Z,100.00
2023-04-16T23:11:25.412Z,100.00
2023-04-16T23:13:53.670Z,100.00
2023-04-16T23:16:20.681Z,100.00
2023-04-16T23:18:47.674Z,100.00
2023-04-16T23:21:14.551Z,100.00
2023-04-16T23:23:41.487Z,100.00
2023-04-16T23:26:08.302Z,100.00
2023-04-16T23:28:35.234Z,100.00
2023-04-16T23:31:05.281Z,100.00
2023-04-16T23:33:33.561Z,100.00
2023-04-16T23:36:00.555Z,100.00
2023-04-16T23:38:27.465Z,100.00
2023-04-16T23:40:54.350Z,100.00
2023-04-16T23:43:21.195Z,100.00
2023-04-16T23:45:48.055Z,100.00
2023-04-16T23:48:16.308Z,100.00
2023-04-16T23:50:43.155Z,100.00
2023-04-16T23:53:10.014Z,100.00
2023-04-16T23:55:36.867Z,100.00
2023-04-16T23:58:03.695Z,100.00
